createdAt,value
2023-01-13T00:00:05.998Z,6.9
2023-01-13T00:01:08.933Z,6.9
2023-01-13T00:02:10.956Z,6.9
2023-01-13T00:03:12.925Z,6.9
2023-01-13T00:04:14.926Z,6.9
2023-01-13T00:05:16.925Z,6.9
2023-01-13T00:06:18.958Z,6.9
2023-01-13T00:07:20.927Z,6.9
2023-01-13T00:08:22.921Z,6.8
2023-01-13T00:09:24.928Z,6.8
2023-01-13T00:10:26.983Z,6.8
2023-01-13T00:11:28.972Z,6.9
2023-01-13T00:12:30.936Z,6.8
2023-01-13T00:13:32.933Z,6.8
2023-01-13T00:14:34.937Z,6.8
2023-01-13T00:15:36.967Z,6.8
2023-01-13T00:16:39.004Z,6.8
2023-01-13T00:17:40.948Z,6.8
2023-01-13T00:18:42.943Z,6.8
2023-01-13T00:19:44.928Z,6.8
2023-01-13T00:20:46.938Z,6.8
2023-01-13T00:21:48.989Z,6.8
2023-01-13T00:22:52.942Z,6.8
2023-01-13T00:23:54.963Z,6.8
2023-01-13T00:24:57.941Z,6.8
2023-01-13T00:26:00.004Z,6.8
2023-01-13T00:27:01.962Z,6.8
2023-01-13T00:28:03.959Z,6.8
2023-01-13T00:29:05.953Z,6.9
2023-01-13T00:30:07.953Z,6.9
2023-01-13T00:31:09.981Z,6.9
2023-01-13T00:32:11.991Z,6.9
2023-01-13T00:33:13.946Z,6.9
2023-01-13T00:34:15.953Z,6.9
2023-01-13T00:35:17.951Z,6.9
2023-01-13T00:36:19.949Z,6.9
2023-01-13T00:37:21.969Z,6.9
2023-01-13T00:38:23.952Z,6.8
2023-01-13T00:39:25.948Z,6.8
2023-01-13T00:40:27.952Z,6.8
2023-01-13T00:41:29.958Z,6.8
2023-01-13T00:42:31.966Z,6.8
2023-01-13T00:43:33.955Z,6.8
2023-01-13T00:44:35.954Z,6.8
2023-01-13T00:45:37.984Z,6.8
2023-01-13T00:46:40.011Z,6.8
2023-01-13T00:47:42.014Z,6.8
2023-01-13T00:48:43.949Z,6.8
2023-01-13T00:49:45.966Z,6.8
2023-01-13T00:50:48.970Z,6.8
2023-01-13T00:51:51.969Z,6.8
2023-01-13T00:52:53.977Z,6.8
2023-01-13T00:53:55.972Z,6.8
2023-01-13T00:54:58.964Z,6.8
2023-01-13T00:56:02.016Z,6.8
2023-01-13T00:57:03.955Z,6.9
2023-01-13T00:58:05.983Z,6.9
2023-01-13T00:59:08.009Z,6.9
2023-01-13T01:00:09.972Z,6.9
2023-01-13T01:01:12.158Z,6.9
2023-01-13T01:02:14.108Z,6.9
2023-01-13T01:03:15.972Z,6.8
2023-01-13T01:04:17.978Z,6.8
2023-01-13T01:05:20.000Z,6.8
2023-01-13T01:06:21.987Z,6.8
2023-01-13T01:07:23.969Z,6.8
2023-01-13T01:08:25.987Z,6.8
2023-01-13T01:09:27.972Z,6.8
2023-01-13T01:10:42.197Z,6.8
2023-01-13T01:11:31.965Z,6.8
2023-01-13T01:12:33.972Z,6.8
2023-01-13T01:13:35.984Z,6.8
2023-01-13T01:14:37.972Z,6.8
2023-01-13T01:15:40.012Z,6.8
2023-01-13T01:16:41.985Z,6.8
2023-01-13T01:17:44.011Z,6.8
2023-01-13T01:18:45.987Z,6.8
2023-01-13T01:19:48.994Z,6.8
2023-01-13T01:20:52.025Z,6.8
2023-01-13T01:21:53.995Z,6.8
2023-01-13T01:22:55.991Z,6.8
2023-01-13T01:23:57.995Z,6.8
2023-01-13T01:25:00.005Z,6.8
2023-01-13T01:26:02.007Z,6.8
2023-01-13T01:27:03.999Z,6.8
2023-01-13T01:28:05.989Z,6.8
2023-01-13T01:29:07.989Z,6.8
2023-01-13T01:30:11.020Z,6.9
2023-01-13T01:31:13.053Z,6.9
2023-01-13T01:32:15.987Z,6.9
2023-01-13T01:33:18.085Z,6.9
2023-01-13T01:34:20.012Z,6.9
2023-01-13T01:35:22.043Z,6.8
2023-01-13T01:36:23.989Z,6.8
2023-01-13T01:37:25.990Z,6.8
2023-01-13T01:38:27.985Z,6.8
2023-01-13T01:39:29.993Z,6.8
2023-01-13T01:40:32.038Z,6.8
2023-01-13T01:41:34.039Z,6.8
2023-01-13T01:42:36.002Z,6.8
2023-01-13T01:43:39.003Z,6.8
2023-01-13T01:44:40.998Z,6.8
2023-01-13T01:45:43.018Z,6.8
2023-01-13T01:46:45.085Z,6.8
2023-01-13T01:47:46.995Z,6.8
2023-01-13T01:48:49.028Z,6.8
2023-01-13T01:49:52.011Z,6.7
2023-01-13T01:50:54.017Z,6.8
2023-01-13T01:51:56.039Z,6.8
2023-01-13T01:52:58.044Z,6.8
2023-01-13T01:54:00.010Z,6.7
2023-01-13T01:55:02.003Z,6.7
2023-01-13T01:56:04.029Z,6.7
2023-01-13T01:57:06.002Z,6.7
2023-01-13T01:58:08.026Z,6.6
2023-01-13T01:59:10.010Z,6.7
2023-01-13T02:00:12.042Z,6.7
2023-01-13T02:01:14.105Z,6.7
2023-01-13T02:02:17.079Z,6.7
2023-01-13T02:03:19.034Z,6.8
2023-01-13T02:04:21.019Z,6.8
2023-01-13T02:05:23.008Z,6.7
2023-01-13T02:06:25.032Z,6.7
2023-01-13T02:07:27.021Z,6.7
2023-01-13T02:08:29.006Z,6.8
2023-01-13T02:09:31.017Z,6.8
2023-01-13T02:10:33.012Z,6.8
2023-01-13T02:11:35.012Z,6.8
2023-01-13T02:12:37.025Z,6.8
2023-01-13T02:13:39.014Z,6.8
2023-01-13T02:14:41.061Z,6.8
2023-01-13T02:15:43.024Z,6.8
2023-01-13T02:16:45.070Z,6.8
2023-01-13T02:17:47.052Z,6.8
2023-01-13T02:18:49.052Z,6.8
2023-01-13T02:19:53.040Z,6.7
2023-01-13T02:20:55.033Z,6.7
2023-01-13T02:21:57.029Z,6.7
2023-01-13T02:22:59.069Z,6.7
2023-01-13T02:24:01.231Z,6.7
2023-01-13T02:25:03.034Z,6.7
2023-01-13T02:26:05.105Z,6.7
2023-01-13T02:27:07.065Z,6.7
2023-01-13T02:28:09.066Z,6.6
2023-01-13T02:29:11.023Z,6.6
2023-01-13T02:30:13.020Z,6.7
2023-01-13T02:31:15.119Z,6.7
2023-01-13T02:32:18.031Z,6.7
2023-01-13T02:33:20.129Z,6.7
2023-01-13T02:34:22.025Z,6.7
2023-01-13T02:35:24.030Z,6.7
2023-01-13T02:36:26.030Z,6.7
2023-01-13T02:37:28.026Z,6.7
2023-01-13T02:38:30.057Z,6.7
2023-01-13T02:39:32.050Z,6.7
2023-01-13T02:41:36.035Z,6.7
2023-01-13T02:42:38.035Z,6.7
2023-01-13T02:43:40.070Z,6.7
2023-01-13T02:44:42.045Z,6.7
2023-01-13T02:45:44.105Z,6.7
2023-01-13T02:46:46.088Z,6.7
2023-01-13T02:47:49.059Z,6.7
2023-01-13T02:48:52.040Z,6.7
2023-01-13T02:49:54.037Z,6.7
2023-01-13T02:50:56.080Z,6.7
2023-01-13T02:51:58.055Z,6.6
2023-01-13T02:53:00.049Z,6.6
2023-01-13T02:54:02.060Z,6.6
2023-01-13T02:55:04.051Z,6.6
2023-01-13T02:56:06.139Z,6.6
2023-01-13T02:57:08.042Z,6.6
2023-01-13T02:58:10.045Z,6.5
2023-01-13T02:59:12.065Z,6.5
2023-01-13T03:00:14.031Z,6.5
2023-01-13T03:01:16.207Z,6.5
2023-01-13T03:02:18.236Z,6.5
2023-01-13T03:03:20.031Z,6.5
2023-01-13T03:04:22.061Z,6.5
2023-01-13T03:05:24.026Z,6.5
2023-01-13T03:06:26.069Z,6.5
2023-01-13T03:07:28.029Z,6.5
2023-01-13T03:08:30.030Z,6.5
2023-01-13T03:09:32.046Z,6.5
2023-01-13T03:10:34.044Z,6.5
2023-01-13T03:11:36.052Z,6.5
2023-01-13T03:12:38.056Z,6.5
2023-01-13T03:13:40.035Z,6.5
2023-01-13T03:14:42.046Z,6.5
2023-01-13T03:15:44.042Z,6.6
2023-01-13T03:16:46.181Z,6.5
2023-01-13T03:17:49.071Z,6.5
2023-01-13T03:18:52.041Z,6.5
2023-01-13T03:19:54.041Z,6.5
2023-01-13T03:20:56.086Z,6.5
2023-01-13T03:21:58.057Z,6.5
2023-01-13T03:23:00.053Z,6.6
2023-01-13T03:24:02.075Z,6.5
2023-01-13T03:25:04.041Z,6.5
2023-01-13T03:26:06.097Z,6.5
2023-01-13T03:27:08.044Z,6.5
2023-01-13T03:28:10.061Z,6.5
2023-01-13T03:29:12.039Z,6.5
2023-01-13T03:30:14.051Z,6.5
2023-01-13T03:31:16.043Z,6.5
2023-01-13T03:32:18.059Z,6.5
2023-01-13T03:33:20.073Z,6.5
2023-01-13T03:34:22.068Z,6.5
2023-01-13T03:35:24.086Z,6.5
2023-01-13T03:36:26.082Z,6.5
2023-01-13T03:37:28.054Z,6.5
2023-01-13T03:38:31.069Z,6.5
2023-01-13T03:39:33.073Z,6.5
2023-01-13T03:40:35.068Z,6.5
2023-01-13T03:41:37.063Z,6.5
2023-01-13T03:42:39.064Z,6.5
2023-01-13T03:43:41.084Z,6.4
2023-01-13T03:44:43.058Z,6.4
2023-01-13T03:45:45.107Z,6.4
2023-01-13T03:46:47.066Z,6.5
2023-01-13T03:47:49.077Z,6.5
2023-01-13T03:48:53.056Z,6.5
2023-01-13T03:49:55.064Z,6.5
2023-01-13T03:50:57.062Z,6.6
2023-01-13T03:51:59.096Z,6.6
2023-01-13T03:53:01.215Z,6.6
2023-01-13T03:54:03.070Z,6.6
2023-01-13T03:55:05.083Z,6.6
2023-01-13T03:56:07.073Z,6.6
2023-01-13T03:57:09.070Z,6.6
2023-01-13T03:58:11.134Z,6.5
2023-01-13T03:59:13.079Z,6.5
2023-01-13T04:00:16.101Z,6.5
2023-01-13T04:01:18.199Z,6.5
2023-01-13T04:02:20.144Z,6.5
2023-01-13T04:03:22.211Z,6.5
2023-01-13T04:04:24.078Z,6.5
2023-01-13T04:05:26.120Z,6.5
2023-01-13T04:06:28.074Z,6.4
2023-01-13T04:07:30.088Z,6.4
2023-01-13T04:08:32.104Z,6.4
2023-01-13T04:09:34.091Z,6.4
2023-01-13T04:10:36.095Z,6.4
2023-01-13T04:11:38.097Z,6.4
2023-01-13T04:12:40.079Z,6.4
2023-01-13T04:13:43.097Z,6.4
2023-01-13T04:15:47.195Z,6.4
2023-01-13T04:16:49.111Z,6.5
2023-01-13T04:17:52.113Z,6.5
2023-01-13T04:18:54.082Z,6.5
2023-01-13T04:19:56.085Z,6.5
2023-01-13T04:20:59.127Z,6.6
2023-01-13T04:22:02.088Z,6.6
2023-01-13T04:23:04.089Z,6.5
2023-01-13T04:24:06.092Z,6.5
2023-01-13T04:25:08.097Z,6.5
2023-01-13T04:26:10.153Z,6.5
2023-01-13T04:27:12.087Z,6.4
2023-01-13T04:28:14.099Z,6.5
2023-01-13T04:29:16.108Z,6.5
2023-01-13T04:30:18.088Z,6.5
2023-01-13T04:31:20.185Z,6.4
2023-01-13T04:32:22.104Z,6.4
2023-01-13T04:33:24.092Z,6.4
2023-01-13T04:34:28.275Z,6.4
2023-01-13T04:35:28.108Z,6.4
2023-01-13T04:36:30.263Z,6.4
2023-01-13T04:37:32.112Z,6.4
2023-01-13T04:38:34.110Z,6.4
2023-01-13T04:39:37.092Z,6.4
2023-01-13T04:40:39.109Z,6.4
2023-01-13T04:41:41.151Z,6.4
2023-01-13T04:42:43.100Z,6.4
2023-01-13T04:43:45.110Z,6.4
2023-01-13T04:44:47.125Z,6.5
2023-01-13T04:45:49.134Z,6.5
2023-01-13T04:46:52.138Z,6.5
2023-01-13T04:47:54.109Z,6.5
2023-01-13T04:48:56.111Z,6.4
2023-01-13T04:49:58.109Z,6.4
2023-01-13T04:51:00.117Z,6.4
2023-01-13T04:52:02.188Z,6.5
2023-01-13T04:53:04.109Z,6.5
2023-01-13T04:54:06.111Z,6.4
2023-01-13T04:55:08.158Z,6.5
2023-01-13T04:56:10.249Z,6.4
2023-01-13T04:57:12.113Z,6.4
2023-01-13T04:58:14.110Z,6.4
2023-01-13T04:59:16.123Z,6.4
2023-01-13T05:00:18.114Z,6.4
2023-01-13T05:01:20.327Z,6.3
2023-01-13T05:02:22.255Z,6.3
2023-01-13T05:03:24.120Z,6.3
2023-01-13T05:04:26.179Z,6.4
2023-01-13T05:05:28.134Z,6.4
2023-01-13T05:06:30.155Z,6.4
2023-01-13T05:07:32.120Z,6.4
2023-01-13T05:08:34.112Z,6.5
2023-01-13T05:09:36.124Z,6.5
2023-01-13T05:10:38.146Z,6.5
2023-01-13T05:11:41.119Z,6.5
2023-01-13T05:12:43.122Z,6.5
2023-01-13T05:13:45.149Z,6.5
2023-01-13T05:14:47.161Z,6.4
2023-01-13T05:15:49.204Z,6.5
2023-01-13T05:16:53.167Z,6.4
2023-01-13T05:17:55.163Z,6.4
2023-01-13T05:18:57.189Z,6.5
2023-01-13T05:19:59.157Z,6.5
2023-01-13T05:21:01.206Z,6.5
2023-01-13T05:23:05.167Z,6.5
2023-01-13T05:24:07.168Z,6.5
2023-01-13T05:25:09.235Z,6.4
2023-01-13T05:26:11.198Z,6.4
2023-01-13T05:27:13.210Z,6.4
2023-01-13T05:28:15.179Z,6.4
2023-01-13T05:29:17.173Z,6.4
2023-01-13T05:30:19.167Z,6.4
2023-01-13T05:31:21.274Z,6.4
2023-01-13T05:32:23.179Z,6.4
2023-01-13T05:33:25.172Z,6.4
2023-01-13T05:34:27.175Z,6.4
2023-01-13T05:35:29.177Z,6.5
2023-01-13T05:36:31.201Z,6.5
2023-01-13T05:37:33.189Z,6.5
2023-01-13T05:38:45.534Z,6.5
2023-01-13T05:39:45.531Z,6.4
2023-01-13T05:40:45.545Z,6.4
2023-01-13T05:41:45.548Z,6.4
2023-01-13T05:42:45.538Z,6.4
2023-01-13T05:43:46.196Z,6.4
2023-01-13T05:44:49.202Z,6.4
2023-01-13T05:45:52.201Z,6.4
2023-01-13T05:46:54.284Z,6.3
2023-01-13T05:47:56.190Z,6.3
2023-01-13T05:48:58.180Z,6.3
2023-01-13T05:50:01.183Z,6.3
2023-01-13T05:51:03.219Z,6.4
2023-01-13T05:52:05.239Z,6.3
2023-01-13T05:53:07.185Z,6.3
2023-01-13T05:54:09.192Z,6.3
2023-01-13T05:55:11.196Z,6.3
2023-01-13T05:56:13.240Z,6.3
2023-01-13T05:57:15.206Z,6.4
2023-01-13T05:58:17.194Z,6.4
2023-01-13T05:59:19.184Z,6.4
2023-01-13T06:00:22.182Z,6.4
2023-01-13T06:01:24.239Z,6.4
2023-01-13T06:02:26.226Z,6.4
2023-01-13T06:03:28.192Z,6.4
2023-01-13T06:04:30.262Z,6.4
2023-01-13T06:05:32.200Z,6.4
2023-01-13T06:06:34.205Z,6.4
2023-01-13T06:07:36.258Z,6.4
2023-01-13T06:08:39.920Z,6.4
2023-01-13T06:09:40.201Z,6.4
2023-01-13T06:10:42.210Z,6.3
2023-01-13T06:11:44.211Z,6.3
2023-01-13T06:12:46.204Z,6.3
2023-01-13T06:13:50.202Z,6.3
2023-01-13T06:14:52.192Z,6.3
2023-01-13T06:15:54.191Z,6.2
2023-01-13T06:16:56.195Z,6.2
2023-01-13T06:17:58.201Z,6.2
2023-01-13T06:19:01.187Z,6.2
2023-01-13T06:20:02.205Z,6.2
2023-01-13T06:21:04.209Z,6.2
2023-01-13T06:22:06.205Z,6.3
2023-01-13T06:23:08.241Z,6.3
2023-01-13T06:24:10.204Z,6.3
2023-01-13T06:25:12.257Z,6.2
2023-01-13T06:26:14.198Z,6.2
2023-01-13T06:27:16.208Z,6.2
2023-01-13T06:28:18.210Z,6.2
2023-01-13T06:29:20.203Z,6.2
2023-01-13T06:30:22.218Z,6.2
2023-01-13T06:31:24.272Z,6.2
2023-01-13T06:32:27.212Z,6.2
2023-01-13T06:34:31.216Z,6.2
2023-01-13T06:35:33.228Z,6.2
2023-01-13T06:36:35.209Z,6.2
2023-01-13T06:37:37.218Z,6.2
2023-01-13T06:38:39.233Z,6.2
2023-01-13T06:39:41.217Z,6.1
2023-01-13T06:40:43.419Z,6.1
2023-01-13T06:41:45.230Z,6.1
2023-01-13T06:42:47.226Z,6.1
2023-01-13T06:43:49.225Z,6.2
2023-01-13T06:44:53.227Z,6.1
2023-01-13T06:45:55.416Z,6.1
2023-01-13T06:46:57.334Z,6.1
2023-01-13T06:47:59.224Z,6.1
2023-01-13T06:49:01.247Z,6.1
2023-01-13T06:50:03.218Z,6.1
2023-01-13T06:51:05.268Z,6.1
2023-01-13T06:52:07.242Z,6.1
2023-01-13T06:53:09.229Z,6.1
2023-01-13T06:54:45.615Z,6.1
2023-01-13T06:58:45.599Z,6.2
2023-01-13T06:59:45.587Z,6.2
2023-01-13T07:00:45.629Z,6.2
2023-01-13T07:01:45.791Z,6.2
2023-01-13T07:02:45.707Z,6.2
2023-01-13T07:03:45.592Z,6.2
2023-01-13T07:04:45.601Z,6.2
2023-01-13T07:05:45.597Z,6.2
2023-01-13T07:06:45.592Z,6.2
2023-01-13T07:07:45.796Z,6.2
2023-01-13T07:08:45.595Z,6.1
2023-01-13T07:09:45.609Z,6.2
2023-01-13T07:10:45.607Z,6.1
2023-01-13T07:11:46.241Z,6.1
2023-01-13T07:12:49.276Z,6.1
2023-01-13T07:13:52.243Z,6.1
2023-01-13T07:14:54.256Z,6.1
2023-01-13T07:15:56.248Z,6
2023-01-13T07:16:58.245Z,6
2023-01-13T07:18:01.161Z,6
2023-01-13T07:19:02.256Z,6
2023-01-13T07:20:04.262Z,6
2023-01-13T07:21:06.262Z,6
2023-01-13T07:22:08.242Z,6
2023-01-13T07:23:10.233Z,6
2023-01-13T07:24:12.251Z,5.9
2023-01-13T07:25:14.279Z,5.9
2023-01-13T07:26:16.294Z,6
2023-01-13T07:27:18.260Z,5.9
2023-01-13T07:28:21.273Z,6
2023-01-13T07:29:23.267Z,6
2023-01-13T07:30:26.271Z,6
2023-01-13T07:31:28.292Z,6
2023-01-13T07:32:30.245Z,6
2023-01-13T07:33:32.250Z,6
2023-01-13T07:34:34.255Z,5.9
2023-01-13T07:35:36.250Z,5.9
2023-01-13T07:36:38.274Z,5.9
2023-01-13T07:37:40.330Z,5.9
2023-01-13T07:38:42.258Z,5.9
2023-01-13T07:39:44.257Z,5.9
2023-01-13T07:40:46.288Z,5.9
2023-01-13T07:41:49.310Z,5.9
2023-01-13T07:42:52.273Z,5.9
2023-01-13T07:43:54.258Z,5.9
2023-01-13T07:44:56.263Z,5.9
2023-01-13T07:45:58.284Z,5.9
2023-01-13T07:47:01.267Z,6
2023-01-13T07:49:04.266Z,6
2023-01-13T07:50:06.272Z,6
2023-01-13T07:51:08.270Z,6
2023-01-13T07:52:11.312Z,6
2023-01-13T07:53:13.272Z,6
2023-01-13T07:54:15.276Z,6
2023-01-13T07:55:17.317Z,6.1
2023-01-13T07:56:19.273Z,6.1
2023-01-13T07:57:21.299Z,6.1
2023-01-13T07:58:23.274Z,6.1
2023-01-13T07:59:25.272Z,6
2023-01-13T08:00:27.336Z,6.1
2023-01-13T08:01:29.376Z,6
2023-01-13T08:02:31.442Z,6
2023-01-13T08:03:33.272Z,6
2023-01-13T08:04:35.275Z,6
2023-01-13T08:05:37.284Z,6
2023-01-13T08:06:39.279Z,5.9
2023-01-13T08:07:41.336Z,5.9
2023-01-13T08:08:43.296Z,5.9
2023-01-13T08:09:45.281Z,5.9
2023-01-13T08:10:47.310Z,5.9
2023-01-13T08:12:56.342Z,5.9
2023-01-13T08:13:54.283Z,5.9
2023-01-13T08:14:56.283Z,5.9
2023-01-13T08:15:58.291Z,5.9
2023-01-13T08:17:01.163Z,5.9
2023-01-13T08:18:02.328Z,6
2023-01-13T08:19:04.287Z,6
2023-01-13T08:20:06.287Z,6
2023-01-13T08:21:08.277Z,6
2023-01-13T08:22:10.292Z,6
2023-01-13T08:23:12.318Z,6.1
2023-01-13T08:24:14.308Z,6.2
2023-01-13T08:25:16.296Z,6.2
2023-01-13T08:26:18.490Z,6.1
2023-01-13T08:27:20.295Z,6.1
2023-01-13T08:28:22.337Z,6.1
2023-01-13T08:29:24.362Z,6.1
2023-01-13T08:30:26.458Z,6.1
2023-01-13T08:31:28.306Z,6.1
2023-01-13T08:32:30.288Z,6.1
2023-01-13T08:33:32.326Z,6.1
2023-01-13T08:34:34.307Z,6.2
2023-01-13T08:35:36.299Z,6.2
2023-01-13T08:36:38.305Z,6.2
2023-01-13T08:37:41.316Z,6.2
2023-01-13T08:38:43.320Z,6.2
2023-01-13T08:39:46.312Z,6.2
2023-01-13T08:41:52.336Z,6.2
2023-01-13T08:42:54.309Z,6.2
2023-01-13T08:43:56.310Z,6.2
2023-01-13T08:44:58.301Z,6.3
2023-01-13T08:46:01.267Z,6.3
2023-01-13T08:47:02.299Z,6.4
2023-01-13T08:48:04.302Z,6.4
2023-01-13T08:49:06.315Z,6.4
2023-01-13T08:50:09.307Z,6.4
2023-01-13T08:51:11.412Z,6.4
2023-01-13T08:52:13.308Z,6.4
2023-01-13T08:53:15.307Z,6.4
2023-01-13T08:54:17.298Z,6.4
2023-01-13T08:55:19.361Z,6.4
2023-01-13T08:56:21.307Z,6.4
2023-01-13T08:57:23.462Z,6.4
2023-01-13T08:58:25.409Z,6.4
2023-01-13T08:59:28.299Z,6.4
2023-01-13T09:00:30.360Z,6.4
2023-01-13T09:01:32.477Z,6.4
2023-01-13T09:02:34.356Z,6.4
2023-01-13T09:03:36.311Z,6.4
2023-01-13T09:04:38.492Z,6.4
2023-01-13T09:05:40.356Z,6.4
2023-01-13T09:06:42.340Z,6.3
2023-01-13T09:07:44.365Z,6.4
2023-01-13T09:08:46.328Z,6.4
2023-01-13T09:09:49.341Z,6.3
2023-01-13T09:10:52.355Z,6.3
2023-01-13T09:11:54.330Z,6.3
2023-01-13T09:12:56.610Z,6.3
2023-01-13T09:13:58.328Z,6.3
2023-01-13T09:15:01.215Z,6.3
2023-01-13T09:16:02.440Z,6.3
2023-01-13T09:17:04.373Z,6.3
2023-01-13T09:18:06.340Z,6.4
2023-01-13T09:19:08.368Z,6.4
2023-01-13T09:20:10.436Z,6.4
2023-01-13T09:21:12.333Z,6.4
2023-01-13T09:22:14.367Z,6.4
2023-01-13T09:23:16.335Z,6.4
2023-01-13T09:24:18.319Z,6.4
2023-01-13T09:25:20.343Z,6.4
2023-01-13T09:26:22.329Z,6.4
2023-01-13T09:27:24.378Z,6.4
2023-01-13T09:28:26.359Z,6.4
2023-01-13T09:29:28.351Z,6.4
2023-01-13T09:30:30.345Z,6.4
2023-01-13T09:31:33.363Z,6.5
2023-01-13T09:32:35.364Z,6.5
2023-01-13T09:33:37.344Z,6.4
2023-01-13T09:34:39.344Z,6.5
2023-01-13T09:35:41.350Z,6.5
2023-01-13T09:36:43.357Z,6.5
2023-01-13T09:37:45.335Z,6.4
2023-01-13T09:38:49.358Z,6.4
2023-01-13T09:39:52.341Z,6.5
2023-01-13T09:40:54.341Z,6.5
2023-01-13T09:41:56.356Z,6.5
2023-01-13T09:42:58.344Z,6.5
2023-01-13T09:44:01.214Z,6.5
2023-01-13T09:45:03.351Z,6.6
2023-01-13T09:46:05.356Z,6.6
2023-01-13T09:47:07.372Z,6.6
2023-01-13T09:48:09.337Z,6.7
2023-01-13T09:49:11.358Z,6.7
2023-01-13T09:50:13.401Z,6.7
2023-01-13T09:51:15.374Z,6.8
2023-01-13T09:52:17.372Z,6.8
2023-01-13T09:53:19.342Z,6.8
2023-01-13T09:54:21.363Z,6.8
2023-01-13T09:55:23.382Z,6.7
2023-01-13T09:56:25.366Z,6.7
2023-01-13T09:57:27.566Z,6.7
2023-01-13T09:58:29.345Z,6.7
2023-01-13T09:59:31.358Z,6.7
2023-01-13T10:00:46.253Z,6.7
2023-01-13T10:01:36.295Z,6.6
2023-01-13T10:02:38.296Z,6.6
2023-01-13T10:03:40.359Z,6.6
2023-01-13T10:04:42.325Z,6.6
2023-01-13T10:05:44.295Z,6.6
2023-01-13T10:06:46.300Z,6.6
2023-01-13T10:07:49.636Z,6.5
2023-01-13T10:08:52.272Z,6.5
2023-01-13T10:09:54.294Z,6.5
2023-01-13T10:10:56.268Z,6.5
2023-01-13T10:11:58.274Z,6.4
2023-01-13T10:13:01.160Z,6.4
2023-01-13T10:14:02.296Z,6.4
2023-01-13T10:15:05.313Z,6.4
2023-01-13T10:16:07.374Z,6.4
2023-01-13T10:17:09.278Z,6.4
2023-01-13T10:18:11.351Z,6.3
2023-01-13T10:19:13.301Z,6.3
2023-01-13T10:20:15.271Z,6.3
2023-01-13T10:21:17.320Z,6.3
2023-01-13T10:22:19.270Z,6.3
2023-01-13T10:23:21.275Z,6.2
2023-01-13T10:24:23.323Z,6.2
2023-01-13T10:25:25.298Z,6.2
2023-01-13T10:26:27.393Z,6.2
2023-01-13T10:27:29.284Z,6.2
2023-01-13T10:28:31.286Z,6.2
2023-01-13T10:29:33.306Z,6.2
2023-01-13T10:30:35.333Z,6.1
2023-01-13T10:31:37.366Z,6.1
2023-01-13T10:32:39.288Z,6.1
2023-01-13T10:33:41.280Z,6
2023-01-13T10:34:43.327Z,6
2023-01-13T10:35:45.278Z,6
2023-01-13T10:36:47.306Z,6
2023-01-13T10:37:49.305Z,6
2023-01-13T10:38:51.302Z,6
2023-01-13T10:39:53.305Z,5.9
2023-01-13T10:40:55.298Z,6
2023-01-13T10:41:57.305Z,5.9
2023-01-13T10:42:59.293Z,5.9
2023-01-13T10:44:01.458Z,5.9
2023-01-13T10:45:03.299Z,5.9
2023-01-13T10:46:05.398Z,5.9
2023-01-13T10:47:07.292Z,5.9
2023-01-13T10:48:09.307Z,5.9
2023-01-13T10:49:11.337Z,6
2023-01-13T10:50:14.343Z,6
2023-01-13T10:51:16.309Z,5.9
2023-01-13T10:52:18.401Z,5.9
2023-01-13T10:53:20.300Z,5.9
2023-01-13T10:54:22.308Z,5.9
2023-01-13T10:55:24.311Z,5.9
2023-01-13T10:56:26.305Z,5.9
2023-01-13T10:57:28.312Z,5.8
2023-01-13T10:58:30.311Z,5.8
2023-01-13T10:59:32.348Z,5.8
2023-01-13T11:00:34.328Z,5.8
2023-01-13T11:01:36.451Z,5.8
2023-01-13T11:02:38.349Z,5.8
2023-01-13T11:03:40.319Z,5.8
2023-01-13T11:04:42.338Z,5.8
2023-01-13T11:05:44.437Z,5.8
2023-01-13T11:06:49.440Z,5.8
2023-01-13T11:07:49.355Z,5.8
2023-01-13T11:10:37.937Z,5.7
2023-01-13T11:10:45.787Z,5.8
2023-01-13T11:11:45.771Z,5.7
2023-01-13T11:13:45.775Z,5.7
2023-01-13T11:14:45.792Z,5.7
2023-01-13T11:15:45.926Z,5.7
2023-01-13T11:16:52.888Z,5.7
2023-01-13T11:17:45.775Z,5.7
2023-01-13T11:18:45.779Z,5.7
2023-01-13T11:19:45.803Z,5.7
2023-01-13T11:20:45.804Z,5.7
2023-01-13T11:21:45.808Z,5.7
2023-01-13T11:22:45.787Z,5.8
2023-01-13T11:23:45.767Z,5.8
2023-01-13T11:24:45.807Z,5.8
2023-01-13T11:25:45.779Z,5.8
2023-01-13T11:26:45.813Z,5.8
2023-01-13T11:27:45.798Z,5.8
2023-01-13T11:28:45.785Z,5.8
2023-01-13T11:29:45.809Z,5.8
2023-01-13T11:30:45.794Z,5.8
2023-01-13T11:31:45.889Z,5.8
2023-01-13T11:32:45.784Z,5.8
2023-01-13T11:33:45.823Z,5.9
2023-01-13T11:34:45.782Z,5.9
2023-01-13T11:36:50.333Z,5.9
2023-01-13T11:37:52.364Z,5.9
2023-01-13T11:38:54.339Z,5.9
2023-01-13T11:39:56.373Z,5.9
2023-01-13T11:40:58.342Z,5.9
2023-01-13T11:42:00.335Z,5.9
2023-01-13T11:43:02.357Z,5.9
2023-01-13T11:44:04.346Z,5.9
2023-01-13T11:45:06.339Z,5.9
2023-01-13T11:46:08.782Z,5.9
2023-01-13T11:47:10.353Z,5.9
2023-01-13T11:48:12.381Z,5.9
2023-01-13T11:49:45.804Z,5.9
2023-01-13T11:50:45.794Z,5.8
2023-01-13T11:51:45.862Z,5.8
2023-01-13T11:52:45.807Z,5.8
2023-01-13T11:53:45.812Z,5.8
2023-01-13T11:54:45.809Z,5.8
2023-01-13T11:55:45.799Z,5.8
2023-01-13T11:56:45.799Z,5.8
2023-01-13T11:58:51.041Z,5.8
2023-01-13T11:59:45.829Z,5.8
2023-01-13T12:00:45.806Z,5.8
2023-01-13T12:01:45.885Z,5.8
2023-01-13T12:02:45.960Z,5.8
2023-01-13T12:03:45.835Z,5.8
2023-01-13T12:06:52.363Z,5.8
2023-01-13T12:07:54.368Z,5.8
2023-01-13T12:10:00.812Z,5.8
2023-01-13T12:12:03.391Z,5.8
2023-01-13T12:13:05.383Z,5.9
2023-01-13T12:14:07.360Z,5.9
2023-01-13T12:15:09.404Z,5.9
2023-01-13T12:16:11.502Z,5.9
2023-01-13T12:17:13.417Z,5.9
2023-01-13T12:18:15.431Z,5.9
2023-01-13T12:19:17.360Z,5.9
2023-01-13T12:20:19.806Z,5.9
2023-01-13T12:21:21.376Z,5.9
2023-01-13T12:22:23.367Z,5.9
2023-01-13T12:23:25.370Z,5.9
2023-01-13T12:24:27.374Z,5.9
2023-01-13T12:25:29.385Z,6
2023-01-13T12:26:31.374Z,6
2023-01-13T12:27:33.383Z,6
2023-01-13T12:28:35.407Z,6
2023-01-13T12:29:37.377Z,5.9
2023-01-13T12:30:39.419Z,5.9
2023-01-13T12:31:42.449Z,5.9
2023-01-13T12:32:44.408Z,5.9
2023-01-13T12:33:46.376Z,5.9
2023-01-13T12:34:49.410Z,5.9
2023-01-13T12:35:52.403Z,6
2023-01-13T12:36:54.377Z,6
2023-01-13T12:37:56.381Z,6
2023-01-13T12:38:58.366Z,6
2023-01-13T12:40:00.391Z,6
2023-01-13T12:41:02.443Z,6
2023-01-13T12:42:04.401Z,6
2023-01-13T12:43:06.382Z,6
2023-01-13T12:44:08.391Z,6
2023-01-13T12:45:10.388Z,6
2023-01-13T12:46:12.499Z,5.9
2023-01-13T12:47:14.368Z,5.9
2023-01-13T12:48:16.396Z,5.9
2023-01-13T12:49:18.384Z,5.9
2023-01-13T12:50:20.387Z,5.9
2023-01-13T12:51:22.432Z,5.9
2023-01-13T12:52:24.397Z,5.9
2023-01-13T12:53:26.395Z,5.9
2023-01-13T12:54:28.393Z,5.9
2023-01-13T12:55:30.388Z,5.9
2023-01-13T12:56:34.823Z,5.9
2023-01-13T12:57:34.396Z,5.9
2023-01-13T12:59:38.390Z,5.9
2023-01-13T13:00:40.393Z,6
2023-01-13T13:01:42.691Z,6
2023-01-13T13:02:44.472Z,5.9
2023-01-13T13:03:47.397Z,5.9
2023-01-13T13:04:49.469Z,5.9
2023-01-13T13:05:53.395Z,6
2023-01-13T13:06:56.418Z,6
2023-01-13T13:07:58.399Z,5.9
2023-01-13T13:09:03.323Z,6
2023-01-13T13:10:03.464Z,6
2023-01-13T13:12:07.446Z,6
2023-01-13T13:13:09.405Z,6
2023-01-13T13:14:11.401Z,6
2023-01-13T13:15:13.460Z,5.9
2023-01-13T13:16:15.504Z,5.9
2023-01-13T13:17:45.906Z,5.9
2023-01-13T13:18:45.851Z,5.9
2023-01-13T13:19:45.893Z,5.9
2023-01-13T13:20:45.840Z,5.8
2023-01-13T13:21:45.866Z,5.8
2023-01-13T13:22:45.865Z,5.8
2023-01-13T13:23:45.879Z,5.8
2023-01-13T13:24:45.887Z,5.8
2023-01-13T13:25:45.896Z,5.8
2023-01-13T13:26:46.317Z,5.8
2023-01-13T13:27:45.880Z,5.8
2023-01-13T13:28:45.858Z,5.7
2023-01-13T13:30:45.837Z,5.7
2023-01-13T13:31:46.411Z,5.7
2023-01-13T13:32:49.503Z,5.7
2023-01-13T13:33:52.477Z,5.7
2023-01-13T13:34:54.441Z,5.7
2023-01-13T13:35:56.413Z,5.7
2023-01-13T13:36:58.435Z,5.6
2023-01-13T13:38:01.459Z,5.6
2023-01-13T13:39:03.443Z,5.6
2023-01-13T13:40:05.586Z,5.6
2023-01-13T13:41:07.443Z,5.6
2023-01-13T13:42:09.411Z,5.6
2023-01-13T13:43:11.422Z,5.6
2023-01-13T13:44:13.421Z,5.6
2023-01-13T13:45:15.628Z,5.6
2023-01-13T13:46:17.485Z,5.6
2023-01-13T13:47:19.432Z,5.6
2023-01-13T13:48:21.480Z,5.6
2023-01-13T13:49:23.446Z,5.6
2023-01-13T13:50:25.621Z,5.6
2023-01-13T13:51:27.433Z,5.6
2023-01-13T13:52:29.531Z,5.6
2023-01-13T13:53:31.457Z,5.6
2023-01-13T13:54:33.437Z,5.5
2023-01-13T13:55:35.450Z,5.5
2023-01-13T13:56:37.433Z,5.6
2023-01-13T13:57:40.058Z,5.5
2023-01-13T13:58:41.426Z,5.6
2023-01-13T13:59:43.446Z,5.6
2023-01-13T14:00:45.459Z,5.6
2023-01-13T14:01:47.549Z,5.5
2023-01-13T14:02:49.456Z,5.5
2023-01-13T14:03:53.430Z,5.5
2023-01-13T14:04:56.470Z,5.6
2023-01-13T14:05:58.495Z,5.5
2023-01-13T14:07:00.435Z,5.5
2023-01-13T14:08:02.408Z,5.5
2023-01-13T14:09:04.407Z,5.5
2023-01-13T14:10:06.509Z,5.5
2023-01-13T14:11:08.428Z,5.5
2023-01-13T14:12:10.405Z,5.5
2023-01-13T14:13:12.411Z,5.5
2023-01-13T14:14:14.407Z,5.5
2023-01-13T14:15:16.409Z,5.5
2023-01-13T14:16:18.407Z,5.5
2023-01-13T14:17:20.400Z,5.4
2023-01-13T14:18:22.383Z,5.4
2023-01-13T14:19:36.657Z,5.4
2023-01-13T14:20:26.395Z,5.4
2023-01-13T14:21:28.421Z,5.4
2023-01-13T14:22:30.458Z,5.4
2023-01-13T14:23:32.398Z,5.4
2023-01-13T14:24:45.845Z,5.4
2023-01-13T14:25:45.870Z,5.4
2023-01-13T14:26:45.839Z,5.4
2023-01-13T14:27:45.843Z,5.4
2023-01-13T14:28:45.850Z,5.4
2023-01-13T14:29:45.851Z,5.4
2023-01-13T14:30:46.507Z,5.4
2023-01-13T14:31:49.445Z,5.4
2023-01-13T14:32:52.389Z,5.4
2023-01-13T14:33:54.393Z,5.4
2023-01-13T14:34:56.398Z,5.4
2023-01-13T14:35:58.398Z,5.4
2023-01-13T14:37:00.413Z,5.4
2023-01-13T14:38:02.513Z,5.4
2023-01-13T14:39:04.413Z,5.4
2023-01-13T14:40:06.414Z,5.4